createdAt,value
2019-03-22T00:02:30.899Z,76.84
2019-03-22T00:07:33.341Z,77.72
2019-03-22T00:12:35.997Z,77.76
2019-03-22T00:17:38.557Z,77.93
2019-03-22T00:22:42.177Z,77.78
2019-03-22T00:27:45.003Z,77.94
2019-03-22T00:32:47.434Z,79.15
2019-03-22T00:37:50.003Z,79.49
2019-03-22T00:42:52.457Z,79.61
2019-03-22T00:47:54.913Z,80.13
2019-03-22T00:52:57.572Z,80.56
2019-03-22T00:58:00.121Z,80.43
2019-03-22T01:03:03.237Z,80.26
2019-03-22T01:08:05.862Z,80.15
2019-03-22T01:13:08.310Z,80.08
2019-03-22T01:18:10.879Z,79.96
2019-03-22T01:23:14.311Z,80.61
2019-03-22T01:28:16.789Z,81.08
2019-03-22T01:33:19.412Z,81.58
2019-03-22T01:38:21.936Z,82.55
2019-03-22T01:43:24.490Z,82.44
2019-03-22T01:48:33.096Z,82.29
2019-03-22T01:53:36.600Z,82.78
2019-03-22T01:58:39.054Z,82.40
2019-03-22T02:03:41.694Z,82.63
2019-03-22T02:08:44.233Z,82.65
2019-03-22T02:19:43.844Z,83.12
2019-03-22T02:24:46.233Z,83.23
2019-03-22T02:29:48.603Z,83.15
2019-03-22T02:34:51.003Z,83.61
2019-03-22T02:39:53.683Z,84.13
2019-03-22T02:44:56.404Z,83.86
2019-03-22T02:56:15.441Z,83.53
2019-03-22T03:01:18.254Z,84.28
2019-03-22T03:06:20.634Z,84.87
2019-03-22T03:11:23.193Z,85.10
2019-03-22T03:16:25.591Z,85.39
2019-03-22T03:21:27.992Z,84.75
2019-03-22T03:26:30.356Z,84.35
2019-03-22T03:31:32.971Z,83.99
2019-03-22T03:36:35.330Z,83.66
2019-03-22T03:41:37.715Z,83.08
2019-03-22T03:46:40.190Z,82.51
2019-03-22T03:51:42.709Z,83.90
2019-03-22T03:56:45.108Z,84.30
2019-03-22T04:01:47.487Z,82.60
2019-03-22T04:06:49.852Z,82.97
2019-03-22T04:11:52.237Z,83.54
2019-03-22T04:16:54.592Z,83.54
2019-03-22T04:21:56.973Z,84.43
2019-03-22T04:26:59.344Z,83.96
2019-03-22T04:32:01.721Z,82.68
2019-03-22T04:37:04.175Z,82.98
2019-03-22T04:42:06.653Z,82.90
2019-03-22T04:47:10.724Z,82.52
2019-03-22T04:52:14.240Z,82.71
2019-03-22T04:57:18.420Z,83.49
2019-03-22T05:02:21.628Z,83.28
2019-03-22T05:07:24.197Z,84.55
2019-03-22T05:12:27.066Z,83.91
2019-03-22T05:17:30.854Z,84.72
2019-03-22T05:22:36.123Z,85.55
2019-03-22T05:27:41.701Z,84.54
2019-03-22T05:32:44.085Z,84.00
2019-03-22T05:37:46.445Z,84.35
2019-03-22T05:42:49.009Z,84.08
2019-03-22T05:47:51.474Z,84.19
2019-03-22T05:52:53.891Z,83.97
2019-03-22T05:57:56.251Z,83.47
2019-03-22T06:02:58.637Z,83.26
2019-03-22T06:08:02.100Z,82.58
2019-03-22T06:13:05.476Z,81.82
2019-03-22T06:18:07.852Z,80.84
2019-03-22T06:23:10.341Z,80.40
2019-03-22T06:28:12.698Z,80.40
2019-03-22T06:33:15.076Z,80.78
2019-03-22T06:38:17.432Z,80.77
2019-03-22T06:43:20.049Z,80.20
2019-03-22T06:48:22.419Z,79.39
2019-03-22T06:53:25.131Z,78.19
2019-03-22T06:58:27.521Z,77.80
2019-03-22T07:03:31.021Z,76.97
2019-03-22T07:08:33.577Z,76.25
2019-03-22T07:13:37.271Z,75.37
2019-03-22T07:18:39.681Z,75.63
2019-03-22T07:23:42.170Z,75.25
2019-03-22T07:28:44.554Z,74.83
2019-03-22T07:33:47.043Z,72.92
2019-03-22T07:38:49.439Z,72.55
2019-03-22T07:43:51.809Z,73.04
2019-03-22T07:48:54.191Z,71.70
2019-03-22T07:53:57.751Z,70.61
2019-03-22T07:59:00.106Z,70.73
2019-03-22T08:04:02.698Z,71.14
2019-03-22T08:09:07.828Z,70.67
2019-03-22T08:14:10.326Z,71.01
2019-03-22T08:19:12.803Z,72.40
2019-03-22T08:24:16.227Z,72.50
2019-03-22T08:29:18.671Z,72.57
2019-03-22T08:34:21.071Z,70.85
2019-03-22T08:39:23.535Z,69.98
2019-03-22T08:44:25.907Z,69.85
2019-03-22T08:49:28.415Z,69.63
2019-03-22T08:54:30.981Z,67.67
2019-03-22T08:59:33.451Z,67.58
2019-03-22T09:04:35.807Z,67.32
2019-03-22T09:09:41.654Z,66.23
2019-03-22T09:14:42.507Z,65.53
2019-03-22T09:19:44.972Z,64.27
2019-03-22T09:24:47.350Z,63.21
2019-03-22T09:29:49.747Z,62.44
2019-03-22T09:34:52.165Z,62.23
2019-03-22T09:39:54.492Z,62.34
2019-03-22T09:44:56.993Z,61.98
2019-03-22T09:49:59.693Z,59.70
2019-03-22T09:55:12.739Z,58.85
2019-03-22T10:00:07.902Z,59.04
2019-03-22T10:05:10.276Z,58.79
2019-03-22T10:10:12.766Z,57.85
2019-03-22T10:15:15.170Z,57.24
2019-03-22T10:20:17.760Z,55.96
2019-03-22T10:25:20.220Z,55.40
2019-03-22T10:30:26.911Z,54.37
2019-03-22T10:35:29.337Z,53.50
2019-03-22T10:40:31.751Z,54.52
2019-03-22T10:45:34.122Z,52.94
2019-03-22T10:50:36.528Z,52.95
2019-03-22T10:55:39.049Z,52.96
2019-03-22T11:00:41.649Z,51.90
2019-03-22T11:05:44.050Z,50.89
2019-03-22T11:10:46.571Z,49.67
2019-03-22T11:15:49.048Z,47.67
2019-03-22T11:20:51.405Z,45.77
2019-03-22T11:26:00.287Z,46.54
2019-03-22T11:31:04.647Z,46.08
2019-03-22T11:36:03.260Z,45.58
2019-03-22T11:41:05.887Z,44.96
2019-03-22T11:46:08.641Z,44.00
2019-03-22T11:51:11.103Z,43.96
2019-03-22T11:56:13.554Z,45.00
2019-03-22T12:01:20.389Z,44.32
2019-03-22T12:06:21.190Z,43.26
2019-03-22T12:11:23.552Z,42.54
2019-03-22T12:16:25.919Z,41.84
2019-03-22T12:21:28.396Z,42.13
2019-03-22T12:26:30.783Z,41.73
2019-03-22T12:31:33.400Z,41.37
2019-03-22T12:36:36.904Z,40.06
2019-03-22T12:41:39.285Z,41.97
2019-03-22T12:46:41.764Z,41.04
2019-03-22T12:51:44.139Z,41.29
2019-03-22T12:56:46.559Z,37.81
2019-03-22T13:01:48.931Z,39.52
2019-03-22T13:06:53.186Z,38.57
2019-03-22T13:11:55.703Z,37.25
2019-03-22T13:16:58.174Z,37.99
2019-03-22T13:22:00.629Z,36.10
2019-03-22T13:27:04.573Z,37.68
2019-03-22T13:32:06.948Z,37.37
2019-03-22T13:37:09.451Z,37.15
2019-03-22T13:42:11.816Z,37.26
2019-03-22T13:47:15.248Z,38.22
2019-03-22T13:52:17.684Z,37.40
2019-03-22T13:57:20.297Z,36.06
2019-03-22T14:02:23.078Z,35.64
2019-03-22T14:07:25.556Z,34.71
2019-03-22T14:12:36.757Z,32.50
2019-03-22T14:17:32.338Z,31.89
2019-03-22T14:22:34.734Z,30.71
2019-03-22T14:27:37.459Z,30.49
2019-03-22T14:32:39.831Z,30.53
2019-03-22T14:37:42.199Z,30.12
2019-03-22T14:42:44.580Z,29.80
2019-03-22T14:47:47.372Z,28.98
2019-03-22T14:52:49.765Z,28.82
2019-03-22T14:57:52.623Z,28.54
2019-03-22T15:02:55.270Z,28.37
2019-03-22T15:07:58.060Z,28.14
2019-03-22T15:13:00.458Z,28.08
2019-03-22T15:18:16.430Z,26.31
2019-03-22T15:23:50.722Z,26.85
2019-03-22T15:29:11.659Z,25.23
2019-03-22T15:34:28.209Z,25.23
2019-03-22T15:39:51.121Z,24.97
2019-03-22T15:44:53.642Z,26.47
2019-03-22T15:49:56.100Z,26.84
2019-03-22T15:54:58.530Z,26.54
2019-03-22T16:00:01.117Z,27.71
2019-03-22T16:05:05.145Z,27.84
2019-03-22T16:10:08.361Z,27.81
2019-03-22T16:15:12.464Z,28.64
2019-03-22T16:20:16.018Z,28.63
2019-03-22T16:25:18.628Z,29.58
2019-03-22T16:30:21.301Z,30.18
2019-03-22T16:35:23.771Z,31.20
2019-03-22T16:40:26.178Z,32.22
2019-03-22T16:45:39.644Z,33.98
2019-03-22T16:51:07.191Z,34.91
2019-03-22T16:56:09.641Z,37.17
2019-03-22T17:01:13.221Z,39.20
2019-03-22T17:06:15.603Z,41.59
2019-03-22T17:11:17.980Z,44.50
2019-03-22T17:16:20.350Z,47.26
2019-03-22T17:21:22.832Z,49.88
2019-03-22T17:26:25.252Z,52.26
2019-03-22T17:31:27.614Z,54.05
2019-03-22T17:36:30.013Z,55.22
2019-03-22T17:41:32.426Z,56.38
2019-03-22T17:46:34.787Z,56.79
2019-03-22T17:51:37.150Z,56.91
2019-03-22T17:56:39.623Z,58.48
2019-03-22T18:01:42.003Z,58.87
2019-03-22T18:06:44.406Z,59.32
2019-03-22T18:11:47.576Z,60.17
2019-03-22T18:16:50.143Z,61.17
2019-03-22T18:21:54.531Z,62.13
2019-03-22T18:26:56.918Z,61.10
2019-03-22T18:31:59.292Z,60.57
2019-03-22T18:37:01.890Z,61.51
2019-03-22T18:42:04.540Z,61.13
2019-03-22T18:47:07.011Z,61.18
2019-03-22T18:52:09.418Z,60.85
2019-03-22T18:57:12.723Z,61.24
2019-03-22T19:02:15.326Z,60.65
2019-03-22T19:07:17.693Z,61.52
2019-03-22T19:12:20.094Z,62.00
2019-03-22T19:17:22.463Z,61.88
2019-03-22T19:22:24.834Z,62.47
2019-03-22T19:27:27.488Z,64.46
2019-03-22T19:32:29.876Z,64.99
2019-03-22T19:37:32.269Z,64.16
2019-03-22T19:42:35.072Z,64.70
2019-03-22T19:47:37.483Z,64.27
2019-03-22T19:52:39.952Z,66.07
2019-03-22T19:57:42.433Z,66.73
2019-03-22T20:02:44.912Z,66.90
2019-03-22T20:07:47.268Z,67.36
2019-03-22T20:12:49.684Z,68.14
2019-03-22T20:17:52.241Z,68.06
2019-03-22T20:22:54.768Z,68.07
2019-03-22T20:27:57.317Z,68.89
2019-03-22T20:33:00.164Z,69.12
2019-03-22T20:38:02.700Z,70.26
2019-03-22T20:43:05.204Z,70.25
2019-03-22T20:48:07.909Z,71.42
2019-03-22T20:53:13.310Z,71.75
2019-03-22T20:58:15.692Z,72.04
2019-03-22T21:03:18.097Z,71.84
2019-03-22T21:08:20.467Z,72.31
2019-03-22T21:13:22.877Z,72.37
2019-03-22T21:18:25.260Z,72.90
2019-03-22T21:23:35.984Z,73.25
2019-03-22T21:28:32.049Z,73.62
2019-03-22T21:33:34.530Z,74.11
2019-03-22T21:38:37.080Z,74.35
2019-03-22T21:43:39.487Z,73.60
2019-03-22T21:48:42.889Z,73.28
2019-03-22T21:53:45.502Z,74.47
2019-03-22T21:58:47.930Z,76.26
2019-03-22T22:03:50.393Z,76.92
2019-03-22T22:08:52.775Z,77.29
2019-03-22T22:13:55.165Z,77.18
2019-03-22T22:18:57.645Z,77.49
2019-03-22T22:24:00.029Z,78.01
2019-03-22T22:29:02.520Z,78.12
2019-03-22T22:34:05.886Z,78.30
2019-03-22T22:39:08.252Z,78.73
2019-03-22T22:44:11.658Z,78.89
2019-03-22T22:49:14.053Z,78.69
2019-03-22T22:54:16.404Z,79.01
2019-03-22T22:59:18.811Z,78.82
2019-03-22T23:04:21.515Z,79.21
2019-03-22T23:09:23.878Z,79.19
2019-03-22T23:14:26.613Z,79.13
2019-03-22T23:19:29.097Z,79.10
2019-03-22T23:24:32.363Z,79.50
2019-03-22T23:29:34.832Z,79.55
2019-03-22T23:34:37.180Z,79.19
2019-03-22T23:39:39.593Z,79.67
2019-03-22T23:44:41.964Z,78.90
2019-03-22T23:49:44.328Z,79.20
2019-03-22T23:54:49.262Z,78.93
2019-03-22T23:59:51.636Z,78.76
